Time;durP1;ratioP1;P1;durP2;ratioP2;P2;SDS_P1;SDS_P2;PMS_P1;PMS_P2;Temp;Humidity;BMP_temperature;BMP_pressure;BME280_temperature;BME280_humidity;BME280_pressure;Samples;Min_cycle;Max_cycle;Signal;HPM_P1;HPM_P2
2022/05/25 00:01:42;;;;;;;6.22;3.47;;;;;;;14.50;65.33;100719.47;5111909;27;20051;-71
2022/05/25 00:04:09;;;;;;;4.60;3.05;;;;;;;14.19;67.46;100725.13;5112960;28;20050;-71
2022/05/25 00:06:36;;;;;;;6.82;3.70;;;;;;;14.40;66.55;100732.47;5111780;27;20051;-71
2022/05/25 00:09:03;;;;;;;6.00;3.72;;;;;;;14.46;66.34;100739.94;5109627;27;20100;-71
2022/05/25 00:11:29;;;;;;;6.13;3.72;;;;;;;13.92;67.78;100743.59;5112252;27;20117;-70
2022/05/25 00:13:57;;;;;;;8.13;3.33;;;;;;;13.43;69.65;100738.84;5109895;27;20043;-70
2022/05/25 00:16:24;;;;;;;6.10;3.78;;;;;;;13.02;72.85;100740.53;5111180;27;20043;-70
2022/05/25 00:21:34;;;;;;;7.95;4.45;;;;;;;12.63;75.11;100749.94;5112353;27;20482;-71
2022/05/25 00:24:00;;;;;;;6.90;3.92;;;;;;;12.33;76.40;100750.91;5110260;28;20047;-70
2022/05/25 00:26:27;;;;;;;7.53;4.75;;;;;;;12.33;76.47;100751.75;5109091;27;20039;-70
2022/05/25 00:28:53;;;;;;;5.53;4.00;;;;;;;12.16;77.32;100743.97;5109887;27;20040;-70
2022/05/25 00:31:20;;;;;;;7.10;4.43;;;;;;;12.09;77.67;100750.53;5109130;28;20053;-70
2022/05/25 00:33:47;;;;;;;6.45;4.40;;;;;;;12.46;75.86;100750.06;5108149;27;20040;-70
2022/05/25 00:36:13;;;;;;;5.88;4.38;;;;;;;12.71;74.94;100748.63;5110612;27;20048;-70
2022/05/25 00:38:39;;;;;;;6.78;4.35;;;;;;;12.66;75.56;100744.50;5108478;28;20097;-70
2022/05/25 00:41:06;;;;;;;6.55;4.40;;;;;;;13.26;73.34;100752.22;5108411;27;20135;-70
2022/05/25 00:43:32;;;;;;;10.88;5.15;;;;;;;13.27;72.20;100745.16;5109852;27;20495;-70
2022/05/25 00:46:03;;;;;;;9.60;4.90;;;;;;;12.39;76.78;100745.25;5110394;28;20044;-70
2022/05/25 00:48:34;;;;;;;6.75;4.55;;;;;;;12.08;78.69;100738.34;5109063;28;20051;-70
2022/05/25 00:51:13;;;;;;;6.45;4.60;;;;;;;12.36;77.32;100748.09;5109606;28;20047;-70
2022/05/25 00:53:40;;;;;;;7.68;4.65;;;;;;;12.47;77.72;100749.16;5107400;28;20096;-70
2022/05/25 00:56:09;;;;;;;10.55;5.32;;;;;;;13.21;74.74;100754.28;5109798;28;20560;-70
2022/05/25 00:58:39;;;;;;;11.65;5.20;;;;;;;13.19;74.68;100750.94;5109318;27;20054;-70
2022/05/25 01:01:06;;;;;;;7.15;5.05;;;;;;;13.34;73.97;100755.22;5109409;28;20042;-70
2022/05/25 01:04:36;;;;;;;9.70;6.25;;;;;;;13.14;75.71;100753.84;5109404;27;20116;-70
2022/05/25 01:07:22;;;;;;;7.78;5.60;;;;;;;13.67;73.83;100756.66;5088627;28;20048;-70
2022/05/25 01:10:03;;;;;;;9.60;5.78;;;;;;;13.54;74.41;100762.72;5100222;28;20040;-70
2022/05/25 01:12:49;;;;;;;10.48;6.70;;;;;;;13.73;74.11;100751.84;5108635;27;20100;-70
2022/05/25 01:15:24;;;;;;;10.10;6.43;;;;;;;13.81;74.19;100756.63;5109192;27;20476;-70
2022/05/25 01:18:02;;;;;;;9.27;5.97;;;;;;;13.02;76.79;100757.19;5107369;28;20101;-71
2022/05/25 01:20:34;;;;;;;9.68;6.75;;;;;;;12.75;77.83;100758.84;5107410;28;20191;-71
2022/05/25 01:23:54;;;;;;;11.63;6.73;;;;;;;12.51;79.47;100763.81;5108430;28;20047;-70
2022/05/25 01:26:41;;;;;;;10.30;6.38;;;;;;;12.82;77.81;100765.47;5094845;28;20047;-70
2022/05/25 01:29:21;;;;;;;8.75;6.60;;;;;;;12.92;76.78;100765.75;5109342;28;20564;-70
2022/05/25 01:31:53;;;;;;;10.98;6.90;;;;;;;12.79;78.14;100759.50;5108262;28;20409;-70
2022/05/25 01:34:27;;;;;;;10.48;6.47;;;;;;;12.48;79.17;100771.88;5108219;27;20035;-70
2022/05/25 01:37:01;;;;;;;10.43;7.00;;;;;;;12.75;78.48;100768.56;5090792;28;20051;-71
2022/05/25 01:39:31;;;;;;;11.98;6.72;;;;;;;13.37;75.78;100778.75;5091458;28;20077;-71
2022/05/25 01:42:04;;;;;;;11.52;6.82;;;;;;;13.65;74.36;100783.94;5098890;27;20096;-71
2022/05/25 01:44:33;;;;;;;;;;;;;;;14.03;72.69;100784.13;5110880;27;20044;-70
2022/05/25 01:47:05;;;;;;;9.27;6.03;;;;;;;13.99;72.63;100784.41;5111675;27;20379;-70
2022/05/25 01:49:36;;;;;;;10.57;7.35;;;;;;;13.75;74.05;100772.81;5109797;27;20078;-70
2022/05/25 01:52:06;;;;;;;10.20;7.05;;;;;;;13.59;74.49;100787.00;5111451;28;20071;-70
2022/05/25 01:54:42;;;;;;;9.95;7.28;;;;;;;13.86;73.49;100786.13;5110837;28;20125;-70
2022/05/25 01:57:10;;;;;;;12.00;6.75;;;;;;;14.03;72.81;100784.13;5111697;28;20100;-70
2022/05/25 01:59:37;;;;;;;12.43;6.78;;;;;;;13.81;73.63;100780.34;5111019;27;20043;-70
2022/05/25 02:04:52;;;;;;;12.68;7.80;;;;;;;12.64;79.22;100785.81;5089946;28;20698;-70
2022/05/25 02:07:31;;;;;;;11.60;7.63;;;;;;;12.67;78.79;100790.06;5111191;27;20095;-70
2022/05/25 02:10:12;;;;;;;11.68;8.23;;;;;;;12.20;81.33;100784.94;5110053;28;20092;-70
2022/05/25 02:12:52;;;;;;;16.10;8.97;;;;;;;11.94;83.71;100790.81;5105425;27;20081;-70
2022/05/25 02:15:28;;;;;;;10.90;7.63;;;;;;;11.96;83.54;100789.81;5111021;28;20223;-70
2022/05/25 02:18:04;;;;;;;11.27;8.07;;;;;;;12.34;82.04;100787.59;5101310;27;20048;-70
2022/05/25 02:20:40;;;;;;;13.02;8.13;;;;;;;12.58;80.23;100780.91;5109974;27;20058;-70
2022/05/25 02:23:15;;;;;;;10.68;7.93;;;;;;;12.23;81.74;100784.78;5111312;27;20080;-70
2022/05/25 02:25:46;;;;;;;11.77;7.88;;;;;;;12.23;81.88;100782.16;5110309;27;20077;-70
2022/05/25 02:28:17;;;;;;;11.82;7.90;;;;;;;12.42;81.40;100788.00;5109044;27;20449;-70
2022/05/25 02:30:47;;;;;;;11.20;7.47;;;;;;;12.88;78.68;100762.44;5109335;27;20055;-70
2022/05/25 02:33:20;;;;;;;10.45;7.15;;;;;;;13.05;76.88;100772.78;5109070;27;20468;-70
2022/05/25 02:35:48;;;;;;;9.65;6.95;;;;;;;13.11;76.94;100771.63;5109026;28;20043;-70
2022/05/25 02:38:15;;;;;;;11.63;7.38;;;;;;;12.65;78.72;100779.63;5109602;27;20043;-70
2022/05/25 02:40:42;;;;;;;10.65;6.75;;;;;;;12.58;79.18;100786.19;5108915;28;20047;-70
2022/05/25 02:43:10;;;;;;;12.07;7.50;;;;;;;12.94;77.22;100790.16;5107512;27;20069;-70
2022/05/25 02:45:38;;;;;;;10.05;7.00;;;;;;;12.88;78.15;100803.72;5108301;27;20047;-70
2022/05/25 02:48:06;;;;;;;11.35;6.75;;;;;;;12.45;79.72;100793.09;5108474;27;20044;-70
2022/05/25 02:50:33;;;;;;;12.68;6.90;;;;;;;12.42;80.57;100806.41;5108244;28;20051;-70
2022/05/25 02:53:00;;;;;;;8.98;6.35;;;;;;;12.39;80.54;100816.25;5109904;28;20413;-70
2022/05/25 02:55:26;;;;;;;8.90;6.28;;;;;;;12.09;81.75;100821.50;5110024;28;20044;-70
2022/05/25 02:57:53;;;;;;;9.73;6.82;;;;;;;11.75;83.77;100821.69;5108312;28;20500;-70
2022/05/25 03:00:19;;;;;;;9.93;6.00;;;;;;;12.02;82.37;100828.88;5107624;28;20049;-70
2022/05/25 03:02:46;;;;;;;8.57;6.05;;;;;;;12.13;81.55;100825.66;5109681;28;20043;-70
2022/05/25 03:05:13;;;;;;;8.95;6.03;;;;;;;12.46;79.49;100813.19;5106374;28;20071;-70
2022/05/25 03:07:41;;;;;;;8.48;5.85;;;;;;;12.18;80.57;100820.97;5108635;28;20410;-70
2022/05/25 03:10:08;;;;;;;6.85;5.15;;;;;;;12.26;80.01;100818.78;5107946;28;20103;-70
2022/05/25 03:12:35;;;;;;;7.82;4.97;;;;;;;12.09;80.76;100837.25;5111435;27;20055;-70
2022/05/25 03:15:01;;;;;;;7.95;5.38;;;;;;;12.14;80.41;100829.97;5105492;28;20092;-70
2022/05/25 03:17:27;;;;;;;13.50;5.78;;;;;;;12.21;79.78;100836.56;5108009;27;20471;-70
2022/05/25 03:19:56;;;;;;;7.28;4.97;;;;;;;12.55;78.77;100825.81;5106242;27;20144;-70
2022/05/25 03:22:23;;;;;;;6.30;4.85;;;;;;;12.84;77.32;100824.09;5106504;27;20237;-70
2022/05/25 03:24:51;;;;;;;7.50;5.20;;;;;;;12.97;76.24;100827.69;5108093;28;20075;-70
2022/05/25 03:27:18;;;;;;;8.38;5.57;;;;;;;12.89;76.11;100826.47;5107708;28;20105;-70
2022/05/25 03:29:44;;;;;;;6.88;5.30;;;;;;;12.59;77.72;100832.59;5106670;27;20117;-70
2022/05/25 03:32:11;;;;;;;8.05;5.28;;;;;;;12.07;80.37;100828.63;5109713;27;20051;-70
2022/05/25 03:34:38;;;;;;;6.85;5.25;;;;;;;12.28;79.71;100843.19;5108429;27;20071;-70
2022/05/25 03:37:04;;;;;;;7.53;5.13;;;;;;;12.84;76.99;100845.16;5107050;27;20073;-70
2022/05/25 03:39:31;;;;;;;7.57;5.18;;;;;;;12.52;77.73;100841.78;5108858;27;20579;-70
2022/05/25 03:42:01;;;;;;;10.25;5.78;;;;;;;12.26;79.51;100845.06;5105013;27;20048;-70
2022/05/25 03:44:28;;;;;;;9.30;5.28;;;;;;;12.10;80.28;100849.47;5106333;27;20051;-70
2022/05/25 03:46:55;;;;;;;7.85;4.80;;;;;;;12.32;79.41;100846.47;5106094;28;20054;-70
2022/05/25 03:49:21;;;;;;;7.90;5.43;;;;;;;12.37;78.70;100853.19;5106925;28;20112;-69
2022/05/25 03:51:48;;;;;;;11.52;5.32;;;;;;;12.63;77.50;100855.16;5106801;28;20093;-69
2022/05/25 03:54:15;;;;;;;7.43;5.47;;;;;;;11.95;80.90;100842.44;5105781;28;20442;-69
2022/05/25 03:56:41;;;;;;;7.45;5.53;;;;;;;12.14;80.76;100845.75;5107893;28;20132;-69
2022/05/25 03:59:09;;;;;;;8.02;5.47;;;;;;;12.90;77.20;100852.66;5106591;27;20101;-70
2022/05/25 04:01:37;;;;;;;8.25;5.22;;;;;;;12.97;76.66;100851.38;5107878;28;20085;-70
2022/05/25 04:04:05;;;;;;;8.85;5.50;;;;;;;12.92;77.03;100849.97;5106612;28;20591;-70
2022/05/25 04:06:32;;;;;;;8.88;5.30;;;;;;;12.85;77.04;100860.00;5105911;28;20054;-70
2022/05/25 04:08:59;;;;;;;6.78;4.90;;;;;;;13.35;75.24;100864.03;5104227;28;20055;-70
2022/05/25 04:11:25;;;;;;;10.30;5.43;;;;;;;13.10;75.90;100867.31;5107750;28;20101;-70
2022/05/25 04:13:52;;;;;;;9.18;5.25;;;;;;;12.74;77.49;100864.19;5106856;27;20047;-70
2022/05/25 04:16:20;;;;;;;10.18;5.22;;;;;;;12.36;79.45;100867.25;5105082;27;20124;-70
2022/05/25 04:18:46;;;;;;;7.53;5.30;;;;;;;12.42;80.07;100858.16;5107272;28;20112;-70
2022/05/25 04:21:12;;;;;;;9.25;4.95;;;;;;;12.66;79.01;100860.25;5106203;27;20047;-70
2022/05/25 04:23:39;;;;;;;9.50;5.15;;;;;;;12.77;78.23;100861.38;5105748;28;20047;-70
2022/05/25 04:26:05;;;;;;;7.57;4.53;;;;;;;12.78;78.10;100863.09;5107501;27;20085;-70
2022/05/25 04:28:32;;;;;;;5.88;4.45;;;;;;;12.50;79.14;100866.47;5106512;28;20050;-70
2022/05/25 04:30:58;;;;;;;5.65;4.60;;;;;;;12.63;79.91;100865.69;5106312;28;20039;-70
2022/05/25 04:33:29;;;;;;;6.15;4.35;;;;;;;12.99;78.61;100861.81;5104854;28;20097;-70
2022/05/25 04:35:55;;;;;;;6.18;4.65;;;;;;;12.92;77.69;100873.66;5106252;28;20419;-69
2022/05/25 04:38:22;;;;;;;6.82;4.53;;;;;;;13.15;77.18;100868.72;5106533;28;20556;-69
2022/05/25 04:40:48;;;;;;;5.57;4.55;;;;;;;13.05;77.00;100861.44;5104958;28;20063;-69
2022/05/25 04:43:18;;;;;;;5.35;4.13;;;;;;;13.78;75.14;100864.88;5106241;27;20445;-70
2022/05/25 04:45:51;;;;;;;6.30;4.38;;;;;;;14.24;73.98;100858.34;5106467;27;20051;-70
2022/05/25 04:48:21;;;;;;;5.53;4.20;;;;;;;14.84;71.53;100865.84;5106980;27;20039;-70
2022/05/25 04:50:49;;;;;;;9.07;4.43;;;;;;;15.44;69.16;100858.16;5106023;27;20039;-70
2022/05/25 04:53:18;;;;;;;5.05;3.90;;;;;;;15.77;68.76;100858.44;5106170;27;20047;-70
2022/05/25 04:58:33;;;;;;;5.65;3.67;;;;;;;15.31;69.47;100871.34;5104955;27;20063;-70
2022/05/25 05:00:59;;;;;;;8.20;4.22;;;;;;;14.25;72.18;100877.66;5106179;27;20097;-70
2022/05/25 05:03:27;;;;;;;6.25;3.90;;;;;;;14.16;73.13;100879.09;5106594;27;20063;-70
2022/05/25 05:05:56;;;;;;;4.88;3.35;;;;;;;14.29;73.00;100874.72;5105510;27;20071;-70
2022/05/25 05:08:23;;;;;;;5.38;3.60;;;;;;;13.73;73.28;100880.13;5105119;27;20488;-70
2022/05/25 05:10:50;;;;;;;5.28;3.65;;;;;;;14.12;72.74;100882.88;5104792;27;20035;-70
2022/05/25 05:13:17;;;;;;;5.47;3.50;;;;;;;14.05;72.80;100879.78;5103792;27;20047;-70
2022/05/25 05:15:48;;;;;;;6.55;3.90;;;;;;;14.61;71.76;100881.41;5104994;27;20051;-70
2022/05/25 05:18:15;;;;;;;6.88;4.00;;;;;;;14.84;70.99;100876.38;5106841;27;20050;-70
2022/05/25 05:20:42;;;;;;;6.10;3.78;;;;;;;15.27;69.46;100880.44;5105398;27;20214;-70
2022/05/25 05:23:10;;;;;;;7.28;3.58;;;;;;;15.80;68.14;100892.59;5106396;27;20384;-69
2022/05/25 05:25:36;;;;;;;8.05;3.80;;;;;;;16.00;67.11;100884.06;5105576;27;20076;-70
2022/05/25 05:28:06;;;;;;;5.82;3.45;;;;;;;16.11;67.04;100893.91;5106359;27;20122;-70
2022/05/25 05:30:36;;;;;;;5.97;3.25;;;;;;;16.39;66.34;100896.22;5104772;27;20047;-70
2022/05/25 05:33:03;;;;;;;5.85;3.25;;;;;;;15.94;66.62;100910.13;5104539;27;20043;-70
2022/05/25 05:35:30;;;;;;;5.78;3.20;;;;;;;15.62;67.57;100909.75;5107086;27;20048;-70
2022/05/25 05:37:58;;;;;;;4.72;2.92;;;;;;;14.67;70.80;100913.63;5105597;27;20048;-70
2022/05/25 05:40:26;;;;;;;5.40;3.17;;;;;;;14.79;71.90;100905.72;5104056;27;20043;-70
2022/05/25 05:42:54;;;;;;;7.72;3.30;;;;;;;15.17;70.74;100918.16;5105868;27;20047;-70
2022/05/25 05:45:25;;;;;;;4.85;3.10;;;;;;;15.71;69.50;100905.59;5105866;27;20491;-70
2022/05/25 05:47:55;;;;;;;4.68;2.88;;;;;;;16.26;67.62;100919.22;5104149;27;20101;-69
2022/05/25 05:50:24;;;;;;;7.22;2.80;;;;;;;16.29;68.25;100913.72;5104388;27;21673;-69
2022/05/25 05:52:51;;;;;;;5.55;3.10;;;;;;;16.62;66.92;100915.75;5106662;28;20472;-69
2022/05/25 05:55:19;;;;;;;6.72;2.53;;;;;;;16.65;65.95;100919.97;5103590;28;20171;-69
2022/05/25 05:57:47;;;;;;;5.28;2.63;;;;;;;16.88;63.84;100922.59;5105194;28;20079;-69
2022/05/25 06:00:15;;;;;;;3.30;2.03;;;;;;;16.95;60.25;100923.81;5105323;28;20043;-69
2022/05/25 06:02:42;;;;;;;4.35;2.08;;;;;;;17.05;59.76;100929.25;5105936;28;20052;-69
2022/05/25 06:05:09;;;;;;;4.10;1.75;;;;;;;17.44;58.07;100928.03;5104184;28;20471;-69
2022/05/25 06:07:35;;;;;;;4.47;2.03;;;;;;;17.75;56.61;100924.69;5105169;28;20048;-69
2022/05/25 06:10:02;;;;;;;4.45;1.90;;;;;;;17.77;55.97;100924.59;5105354;28;20115;-69
2022/05/25 06:12:30;;;;;;;3.75;2.13;;;;;;;17.68;57.44;100927.94;5104871;28;20728;-69
2022/05/25 06:14:58;;;;;;;5.32;2.22;;;;;;;18.05;54.92;100937.34;5105176;27;20043;-70
2022/05/25 06:20:09;;;;;;;8.55;2.85;;;;;;;18.81;54.92;100934.66;5105628;27;20046;-70
2022/05/25 06:22:36;;;;;;;5.55;2.38;;;;;;;19.34;52.35;100930.16;5105082;27;20100;-70
2022/05/25 06:25:04;;;;;;;5.13;2.47;;;;;;;19.54;52.42;100941.78;5108102;27;20491;-70
2022/05/25 06:27:30;;;;;;;8.23;2.75;;;;;;;19.69;52.09;100940.47;5110073;27;20051;-70
2022/05/25 06:29:58;;;;;;;5.13;2.88;;;;;;;19.40;51.45;100950.06;5107415;27;20472;-70
2022/05/25 06:32:24;;;;;;;5.55;2.90;;;;;;;19.45;51.30;100937.25;5108617;27;20040;-70
2022/05/25 06:34:51;;;;;;;3.72;2.42;;;;;;;19.65;52.13;100946.19;5110230;27;20046;-70
2022/05/25 06:37:19;;;;;;;6.13;2.63;;;;;;;19.61;50.92;100956.25;5100377;27;20048;-70
2022/05/25 06:39:46;;;;;;;4.10;2.63;;;;;;;19.76;49.80;100952.25;5120674;27;20047;-70
2022/05/25 06:42:13;;;;;;;6.57;3.38;;;;;;;20.10;49.12;100952.78;5108608;28;20076;-70
2022/05/25 06:44:41;;;;;;;7.00;3.13;;;;;;;20.53;49.30;100965.00;5106976;27;20105;-70
2022/05/25 06:47:09;;;;;;;6.32;3.10;;;;;;;20.60;48.03;100956.31;5109085;27;20093;-70
2022/05/25 06:49:36;;;;;;;6.90;2.90;;;;;;;20.56;47.85;100952.25;5109079;27;20052;-70
2022/05/25 06:52:02;;;;;;;4.32;2.65;;;;;;;20.59;47.88;100961.78;5107771;27;20067;-70
2022/05/25 06:54:28;;;;;;;5.80;2.97;;;;;;;20.64;48.52;100957.75;5108307;27;20093;-70
2022/05/25 06:56:55;;;;;;;6.70;3.40;;;;;;;19.88;50.14;100961.00;5109419;27;20043;-70
2022/05/25 06:59:21;;;;;;;5.35;3.10;;;;;;;20.21;50.28;100959.88;5106939;27;20786;-70
2022/05/25 07:01:47;;;;;;;5.47;3.20;;;;;;;21.15;47.12;100959.31;5108195;27;20093;-70
2022/05/25 07:04:15;;;;;;;7.28;3.42;;;;;;;21.89;45.60;100951.41;5108361;27;20070;-70
2022/05/25 07:06:41;;;;;;;5.75;3.13;;;;;;;21.45;45.61;100953.81;5107047;27;20052;-70
2022/05/25 07:09:09;;;;;;;5.22;2.92;;;;;;;21.49;47.48;100967.69;5106445;27;20040;-70
2022/05/25 07:11:36;;;;;;;6.35;3.05;;;;;;;22.20;48.38;100963.53;5108602;27;20043;-70
2022/05/25 07:14:02;;;;;;;7.07;2.92;;;;;;;22.63;44.62;100966.38;5106475;27;20047;-70
2022/05/25 07:16:28;;;;;;;4.75;2.85;;;;;;;22.18;43.80;100965.50;5106864;27;20043;-70
2022/05/25 07:18:55;;;;;;;7.15;2.58;;;;;;;22.44;43.81;100968.31;5108105;27;20449;-70
2022/05/25 07:21:26;;;;;;;6.63;2.63;;;;;;;23.19;44.70;100973.28;5106649;27;20548;-70
2022/05/25 07:23:55;;;;;;;2.97;2.25;;;;;;;23.57;43.20;100975.59;5107511;27;20047;-70
2022/05/25 07:26:22;;;;;;;8.98;2.55;;;;;;;23.94;39.94;100969.13;5107674;27;20050;-70
2022/05/25 07:28:51;;;;;;;5.97;2.40;;;;;;;23.62;41.88;100969.75;5106954;27;20685;-70
2022/05/25 07:31:22;;;;;;;5.97;2.40;;;;;;;23.86;42.79;100977.94;5106304;27;20050;-71
2022/05/25 07:33:54;;;;;;;4.75;2.15;;;;;;;24.17;41.02;100972.94;5105864;27;20063;-70
2022/05/25 07:36:21;;;;;;;7.97;2.80;;;;;;;24.10;39.20;100972.69;5106618;27;20043;-71
2022/05/25 07:38:51;;;;;;;4.00;2.25;;;;;;;24.33;39.71;100981.03;5107701;27;20116;-70
2022/05/25 07:41:19;;;;;;;3.90;2.20;;;;;;;23.85;40.47;100991.50;5106373;27;20096;-70
2022/05/25 07:43:53;;;;;;;6.72;2.90;;;;;;;23.63;39.37;100985.69;5107112;27;20044;-70
2022/05/25 07:46:20;;;;;;;3.75;2.00;;;;;;;23.49;40.16;100993.44;5106827;27;20043;-70
2022/05/25 07:48:46;;;;;;;7.22;2.47;;;;;;;23.71;39.45;100987.56;5106370;27;20047;-70
2022/05/25 07:51:12;;;;;;;3.20;2.30;;;;;;;23.68;39.53;100983.38;5107269;27;20051;-70
2022/05/25 07:53:57;;;;;;;5.57;2.47;;;;;;;23.57;38.84;100986.31;5107491;27;20051;-70
2022/05/25 07:56:29;;;;;;;3.60;2.17;;;;;;;23.67;39.31;100989.72;5106310;27;20046;-70
2022/05/25 07:58:55;;;;;;;6.00;2.57;;;;;;;22.90;40.51;100980.69;5106369;28;20047;-70
2022/05/25 08:05:43;;;;;;;3.95;2.00;;;;;;;23.33;41.72;100983.41;5108096;28;20769;-70
2022/05/25 08:06:57;;;;;;;6.63;2.30;;;;;;;24.11;38.74;100987.78;5106158;28;20124;-70
2022/05/25 08:09:26;;;;;;;4.55;2.00;;;;;;;24.77;40.46;100983.50;5105923;28;20043;-70
2022/05/25 08:11:53;;;;;;;2.95;1.98;;;;;;;24.56;39.83;100986.66;5107464;28;20044;-70
2022/05/25 08:14:21;;;;;;;4.80;2.05;;;;;;;24.86;38.27;100986.09;5105671;27;20040;-70
2022/05/25 08:16:47;;;;;;;5.15;2.67;;;;;;;25.47;37.11;100982.88;5105776;27;20112;-70
2022/05/25 08:19:14;;;;;;;3.60;2.13;;;;;;;25.83;37.83;100982.53;5106813;27;20597;-71
2022/05/25 08:21:40;;;;;;;4.60;2.10;;;;;;;25.57;37.38;100988.13;5106099;27;20051;-70
2022/05/25 08:24:07;;;;;;;4.38;2.22;;;;;;;24.98;38.13;100984.72;5106866;27;20093;-70
2022/05/25 08:26:33;;;;;;;4.93;2.42;;;;;;;24.25;37.78;100986.38;5106433;27;21100;-70
2022/05/25 08:29:01;;;;;;;4.53;2.42;;;;;;;23.35;40.85;101002.00;5106098;27;20047;-70
2022/05/25 08:31:27;;;;;;;5.32;2.88;;;;;;;23.66;40.02;100990.72;5108506;27;20326;-70
2022/05/25 08:33:54;;;;;;;5.35;2.70;;;;;;;24.08;38.82;100993.47;5106823;27;20044;-70
2022/05/25 08:36:20;;;;;;;4.38;2.40;;;;;;;23.89;38.66;100993.69;5106401;27;20047;-70
2022/05/25 08:38:46;;;;;;;5.22;2.60;;;;;;;23.65;38.57;101001.59;5107442;27;20059;-70
2022/05/25 08:41:13;;;;;;;3.47;2.15;;;;;;;23.71;39.70;100990.25;5104650;28;20044;-70
2022/05/25 08:43:43;;;;;;;4.53;2.53;;;;;;;24.04;37.34;100989.44;5105654;27;20039;-70
2022/05/25 08:46:14;;;;;;;7.25;2.95;;;;;;;23.38;39.79;100993.66;5105478;27;20043;-70
2022/05/25 08:48:42;;;;;;;6.78;2.72;;;;;;;22.95;39.06;100991.78;5105128;27;20054;-70
2022/05/25 08:51:12;;;;;;;6.10;2.53;;;;;;;23.55;41.17;101000.84;5105073;28;20043;-70
2022/05/25 08:53:39;;;;;;;6.28;2.47;;;;;;;22.67;40.74;100993.63;5105287;28;20499;-70
2022/05/25 08:56:18;;;;;;;6.82;2.40;;;;;;;23.23;40.48;100988.88;5107233;28;20130;-70
2022/05/25 08:58:48;;;;;;;4.55;2.60;;;;;;;23.78;40.55;100988.63;5107229;28;20061;-70
2022/05/25 09:01:24;;;;;;;3.95;2.47;;;;;;;24.30;39.08;100980.53;5105672;27;20052;-70
2022/05/25 09:03:58;;;;;;;6.30;2.53;;;;;;;24.47;38.78;100985.78;5085706;28;20071;-70
2022/05/25 09:06:34;;;;;;;4.53;1.77;;;;;;;23.58;38.31;101000.50;5084214;28;20448;-70
2022/05/25 09:09:04;;;;;;;5.22;2.20;;;;;;;23.62;38.20;101001.88;5083982;28;20071;-70
2022/05/25 09:11:38;;;;;;;5.35;2.40;;;;;;;23.96;39.92;100992.06;5084122;28;20120;-70
2022/05/25 09:14:08;;;;;;;6.00;2.53;;;;;;;23.54;38.63;101004.53;5103395;27;20487;-70
2022/05/25 09:16:37;;;;;;;9.93;2.55;;;;;;;23.19;38.73;101005.38;5105730;27;20051;-70
2022/05/25 09:19:11;;;;;;;10.10;3.47;;;;;;;22.92;38.35;100998.25;5105325;27;20039;-70
2022/05/25 09:21:44;;;;;;;4.78;2.30;;;;;;;23.09;40.23;100996.59;5105848;27;20122;-70
2022/05/25 09:24:14;;;;;;;4.35;2.10;;;;;;;23.26;38.38;100996.56;5103910;27;20548;-70
2022/05/25 09:26:42;;;;;;;6.15;2.10;;;;;;;23.17;38.62;100991.31;5104358;27;20067;-70
2022/05/25 09:29:10;;;;;;;3.00;1.60;;;;;;;23.08;37.26;101001.09;5106629;27;20139;-70
2022/05/25 09:31:43;;;;;;;5.00;1.70;;;;;;;23.58;38.09;101001.34;5104644;27;20135;-70
2022/05/25 09:34:14;;;;;;;5.20;1.77;;;;;;;23.62;36.74;100997.38;5105044;27;20487;-70
2022/05/25 09:36:45;;;;;;;6.53;2.00;;;;;;;23.85;36.88;100996.84;5104517;27;20098;-70
2022/05/25 09:39:21;;;;;;;3.10;1.50;;;;;;;24.23;37.35;100993.75;5105135;27;20205;-70
2022/05/25 09:41:48;;;;;;;2.47;1.55;;;;;;;25.09;36.12;100989.78;5105515;27;20092;-70
2022/05/25 09:44:19;;;;;;;3.28;1.60;;;;;;;25.21;33.32;100984.91;5097764;27;20050;-70
2022/05/25 09:46:52;;;;;;;8.82;1.80;;;;;;;25.41;35.46;100985.41;5104531;28;20121;-72
2022/05/25 09:49:30;;;;;;;5.05;2.00;;;;;;;25.61;33.75;100984.06;5100616;28;20040;-70
2022/05/25 09:52:02;;;;;;;6.65;2.08;;;;;;;25.94;36.95;100979.47;5106507;28;20048;-71
2022/05/25 09:54:31;;;;;;;6.72;1.60;;;;;;;25.81;34.90;100977.31;5103938;28;20406;-71
2022/05/25 09:57:02;;;;;;;4.65;1.67;;;;;;;25.26;33.55;100984.41;5105729;28;20082;-72
2022/05/25 09:59:33;;;;;;;6.00;1.92;;;;;;;24.40;34.26;100981.22;5109543;28;20056;-72
2022/05/25 10:02:01;;;;;;;3.03;1.20;;;;;;;23.71;32.91;100987.56;5108668;28;20580;-71
2022/05/25 10:04:39;;;;;;;5.00;1.67;;;;;;;23.89;35.39;100982.13;5109413;27;20483;-71
2022/05/25 10:07:26;;;;;;;6.00;2.13;;;;;;;24.07;35.60;100978.38;5108016;27;20391;-71
2022/05/25 10:09:54;;;;;;;5.30;1.90;;;;;;;24.05;36.28;100974.19;5109525;27;20093;-72
2022/05/25 10:12:27;;;;;;;12.85;2.35;;;;;;;24.16;35.82;100974.78;5108207;28;20084;-71
2022/05/25 10:14:59;;;;;;;5.28;2.10;;;;;;;25.28;39.40;100963.59;5099900;27;20063;-71
2022/05/25 10:17:40;;;;;;;7.57;2.17;;;;;;;25.91;37.22;100958.31;5109843;27;20048;-70
2022/05/25 10:20:22;;;;;;;4.22;1.92;;;;;;;25.90;32.74;100954.81;5108977;28;20127;-72
2022/05/25 10:22:50;;;;;;;;;;;;;;;25.59;32.42;100964.63;5109209;28;20047;-71
2022/05/25 10:25:27;;;;;;;5.72;1.60;;;;;;;24.20;33.13;100960.03;5109725;28;19924;-71
2022/05/25 10:27:55;;;;;;;3.88;1.98;;;;;;;23.53;34.64;100976.06;5109149;28;20059;-71
2022/05/25 10:38:50;;;;;;;3.33;1.42;;;;;;;24.07;32.91;100956.97;5106409;27;20070;-72
2022/05/25 10:41:41;;;;;;;3.30;1.48;;;;;;;24.42;36.52;100952.44;5107890;28;20047;-71
2022/05/25 10:44:15;;;;;;;5.45;1.40;;;;;;;25.62;34.44;100953.53;5109338;27;20507;-71
2022/05/25 10:46:52;;;;;;;3.42;1.33;;;;;;;26.51;32.23;100948.66;5107761;27;20071;-71
2022/05/25 10:49:27;;;;;;;6.32;1.70;;;;;;;26.53;31.00;100961.94;5106884;28;20096;-71
2022/05/25 10:51:59;;;;;;;3.13;1.40;;;;;;;26.50;32.57;100955.06;5107360;28;20047;-72
2022/05/25 10:54:50;;;;;;;4.45;1.55;;;;;;;25.95;33.02;100954.28;5108173;28;20088;-71
2022/05/25 10:57:33;;;;;;;7.57;1.98;;;;;;;24.91;32.61;100948.84;5108801;28;20048;-71
2022/05/25 11:00:04;;;;;;;4.20;1.48;;;;;;;24.49;34.48;100956.13;5109019;28;20048;-70
2022/05/25 11:02:45;;;;;;;5.40;1.80;;;;;;;24.94;36.05;100958.44;5108828;27;20043;-71
2022/05/25 11:05:23;;;;;;;4.00;1.33;;;;;;;24.53;33.54;100952.97;5109412;28;20041;-71
2022/05/25 11:07:53;;;;;;;3.70;1.73;;;;;;;23.87;35.91;100960.06;5108609;28;20047;-70
2022/05/25 11:10:36;;;;;;;3.42;1.35;;;;;;;22.92;36.36;100965.31;5106461;28;20545;-71
2022/05/25 11:13:18;;;;;;;2.47;1.40;;;;;;;22.58;36.75;100957.13;5106571;27;20063;-71
2022/05/25 11:15:56;;;;;;;5.20;1.90;;;;;;;22.60;37.71;100961.31;5108195;27;20039;-70
2022/05/25 11:18:37;;;;;;;4.90;1.70;;;;;;;23.35;39.63;100964.53;5108633;27;20487;-71
2022/05/25 11:21:18;;;;;;;3.35;1.55;;;;;;;23.73;36.47;100959.63;5106033;27;20495;-71
2022/05/25 11:24:14;;;;;;;5.35;1.58;;;;;;;23.97;38.46;100966.97;5106744;27;20039;-71
2022/05/25 11:26:54;;;;;;;4.55;1.65;;;;;;;24.57;36.43;100964.22;5108051;27;20048;-72
2022/05/25 11:29:36;;;;;;;2.33;1.30;;;;;;;24.20;34.59;100965.41;5108466;27;20047;-72
2022/05/25 11:32:10;;;;;;;3.37;1.43;;;;;;;23.83;35.37;100966.72;5108907;27;20093;-71
2022/05/25 11:34:51;;;;;;;3.03;1.60;;;;;;;24.33;35.02;100961.44;5108730;27;20089;-72
2022/05/25 11:37:31;;;;;;;3.08;1.48;;;;;;;23.95;35.03;100965.41;5107890;27;20071;-71
2022/05/25 11:40:07;;;;;;;5.10;1.67;;;;;;;24.16;36.15;100958.72;5106981;27;20040;-72
2022/05/25 11:43:02;;;;;;;6.45;2.08;;;;;;;25.15;34.53;100956.91;5108780;28;20644;-71
2022/05/25 11:45:38;;;;;;;4.70;1.70;;;;;;;25.04;32.73;100959.09;5107326;27;20096;-71
2022/05/25 11:48:22;;;;;;;4.35;1.70;;;;;;;25.81;34.29;100958.53;5106462;27;20510;-71
2022/05/25 11:50:54;;;;;;;5.38;1.67;;;;;;;26.35;35.06;100962.19;5106260;27;20067;-71
2022/05/25 11:53:51;;;;;;;3.78;1.40;;;;;;;26.15;30.96;100960.94;5105626;27;20400;-71
2022/05/25 11:56:37;;;;;;;2.03;1.30;;;;;;;25.55;32.50;100952.53;5085347;27;20040;-71
2022/05/25 11:59:23;;;;;;;2.33;1.38;;;;;;;25.25;35.50;100947.84;5107041;27;20040;-72
2022/05/25 12:01:58;;;;;;;4.05;1.50;;;;;;;25.05;34.03;100947.38;5107583;27;20074;-71
2022/05/25 12:04:49;;;;;;;8.40;1.55;;;;;;;24.49;32.42;100948.94;5105583;28;20046;-71